createdAt,value
2023-03-12T00:01:24.891Z,77.70
2023-03-12T00:03:52.024Z,77.82
2023-03-12T00:06:19.407Z,77.72
2023-03-12T00:08:47.013Z,77.56
2023-03-12T00:11:16.134Z,77.53
2023-03-12T00:13:43.775Z,77.75
2023-03-12T00:16:15.874Z,77.85
2023-03-12T00:18:43.404Z,77.86
2023-03-12T00:21:10.576Z,77.61
2023-03-12T00:23:37.458Z,77.75
2023-03-12T00:26:11.987Z,77.59
2023-03-12T00:28:39.316Z,77.63
2023-03-12T00:31:21.096Z,77.68
2023-03-12T00:33:51.428Z,77.74
2023-03-12T00:36:19.243Z,77.55
2023-03-12T00:38:45.917Z,78.05
2023-03-12T00:41:12.785Z,78.17
2023-03-12T00:43:39.453Z,78.15
2023-03-12T00:46:06.082Z,77.96
2023-03-12T00:48:33.098Z,77.60
2023-03-12T00:50:59.714Z,77.81
2023-03-12T00:53:26.478Z,77.77
2023-03-12T00:55:53.276Z,78.01
2023-03-12T00:58:19.921Z,78.05
2023-03-12T01:00:46.590Z,77.80
2023-03-12T01:03:13.881Z,78.01
2023-03-12T01:05:40.917Z,78.26
2023-03-12T01:08:09.101Z,78.16
2023-03-12T01:10:37.120Z,78.24
2023-03-12T01:13:04.122Z,78.34
2023-03-12T01:15:30.796Z,78.18
2023-03-12T01:17:57.794Z,78.08
2023-03-12T01:20:24.693Z,78.02
2023-03-12T01:22:51.927Z,78.37
2023-03-12T01:25:18.868Z,78.42
2023-03-12T01:27:45.920Z,78.30
2023-03-12T01:30:12.915Z,78.12
2023-03-12T01:32:39.778Z,77.96
2023-03-12T01:35:07.023Z,78.07
2023-03-12T01:37:34.172Z,78.27
2023-03-12T01:40:01.116Z,78.33
2023-03-12T01:42:27.660Z,78.34
2023-03-12T01:44:59.080Z,78.14
2023-03-12T01:47:26.827Z,78.54
2023-03-12T01:49:55.612Z,78.20
2023-03-12T01:52:27.787Z,78.69
2023-03-12T01:55:03.738Z,78.34
2023-03-12T01:57:57.221Z,78.75
2023-03-12T02:00:26.394Z,78.49
2023-03-12T02:02:56.294Z,78.78
2023-03-12T02:05:32.421Z,78.71
2023-03-12T02:07:59.336Z,78.68
2023-03-12T02:10:26.530Z,78.99
2023-03-12T02:12:53.927Z,79.01
2023-03-12T02:15:20.601Z,79.06
2023-03-12T02:17:47.222Z,78.51
2023-03-12T02:20:37.544Z,79.18
2023-03-12T02:23:10.195Z,78.77
2023-03-12T02:25:44.058Z,78.98
2023-03-12T02:28:15.145Z,79.04
2023-03-12T02:30:44.915Z,78.76
2023-03-12T02:33:12.279Z,79.15
2023-03-12T02:35:39.465Z,78.62
2023-03-12T02:38:28.799Z,78.88
2023-03-12T02:40:58.372Z,78.58
2023-03-12T02:43:25.109Z,78.56
2023-03-12T02:45:52.131Z,78.81
2023-03-12T02:48:18.767Z,78.67
2023-03-12T02:50:45.480Z,78.59
2023-03-12T02:53:12.730Z,79.08
2023-03-12T02:55:39.339Z,78.85
2023-03-12T02:58:06.039Z,79.08
2023-03-12T03:00:33.211Z,78.79
2023-03-12T03:03:00.784Z,78.73
2023-03-12T03:05:28.049Z,79.05
2023-03-12T03:07:54.930Z,79.14
2023-03-12T03:10:21.545Z,78.69
2023-03-12T03:12:48.718Z,78.98
2023-03-12T03:15:15.521Z,78.96
2023-03-12T03:17:42.164Z,78.70
2023-03-12T03:20:11.372Z,78.65
2023-03-12T03:22:39.200Z,79.11
2023-03-12T03:25:08.718Z,79.03
2023-03-12T03:27:35.797Z,79.12
2023-03-12T03:30:02.566Z,78.99
2023-03-12T03:32:29.245Z,78.91
2023-03-12T03:34:56.024Z,78.92
2023-03-12T03:37:22.672Z,78.73
2023-03-12T03:39:49.317Z,78.80
2023-03-12T03:42:15.959Z,78.35
2023-03-12T03:44:42.793Z,78.83
2023-03-12T03:47:09.434Z,78.39
2023-03-12T03:49:36.203Z,78.65
2023-03-12T03:52:02.831Z,78.32
2023-03-12T03:54:31.153Z,78.63
2023-03-12T03:56:57.878Z,78.28
2023-03-12T03:59:24.621Z,78.15
2023-03-12T04:01:51.216Z,78.58
2023-03-12T04:04:18.263Z,78.29
2023-03-12T04:06:45.123Z,78.30
2023-03-12T04:09:11.854Z,77.87
2023-03-12T04:11:38.563Z,77.82
2023-03-12T04:14:05.238Z,78.15
2023-03-12T04:16:31.895Z,77.69
2023-03-12T04:18:58.527Z,77.97
2023-03-12T04:21:25.335Z,77.46
2023-03-12T04:23:52.132Z,77.82
2023-03-12T04:26:18.859Z,77.70
2023-03-12T04:28:45.551Z,77.55
2023-03-12T04:31:12.526Z,77.06
2023-03-12T04:33:40.667Z,77.30
2023-03-12T04:36:08.488Z,77.30
2023-03-12T04:38:35.388Z,77.13
2023-03-12T04:41:07.976Z,76.90
2023-03-12T04:43:35.573Z,77.06
2023-03-12T04:46:02.980Z,76.91
2023-03-12T04:48:30.060Z,76.51
2023-03-12T04:50:56.791Z,76.43
2023-03-12T04:53:24.312Z,76.78
2023-03-12T04:55:51.612Z,76.20
2023-03-12T04:58:19.614Z,76.25
2023-03-12T05:00:47.934Z,76.43
2023-03-12T05:03:14.889Z,76.02
2023-03-12T05:05:41.750Z,75.88
2023-03-12T05:08:08.522Z,76.08
2023-03-12T05:10:35.300Z,75.98
2023-03-12T05:13:01.968Z,75.37
2023-03-12T05:15:28.501Z,75.74
2023-03-12T05:17:55.177Z,75.28
2023-03-12T05:20:22.365Z,75.57
2023-03-12T05:22:49.014Z,75.19
2023-03-12T05:25:15.762Z,74.95
2023-03-12T05:27:42.457Z,74.97
2023-03-12T05:30:09.844Z,75.19
2023-03-12T05:32:36.604Z,74.95
2023-03-12T05:35:03.532Z,74.66
2023-03-12T05:37:30.656Z,74.82
2023-03-12T05:39:57.315Z,74.95
2023-03-12T05:42:25.403Z,75.01
2023-03-12T05:44:52.477Z,74.57
2023-03-12T05:47:19.422Z,74.39
2023-03-12T05:49:47.786Z,74.50
2023-03-12T05:52:14.564Z,73.97
2023-03-12T05:54:41.180Z,74.24
2023-03-12T05:57:07.822Z,74.29
2023-03-12T05:59:34.871Z,73.93
2023-03-12T06:02:02.436Z,73.55
2023-03-12T06:04:29.557Z,73.67
2023-03-12T06:06:56.226Z,73.29
2023-03-12T06:09:23.097Z,73.10
2023-03-12T06:11:50.346Z,72.95
2023-03-12T06:14:17.202Z,73.04
2023-03-12T06:16:44.247Z,73.34
2023-03-12T06:19:14.215Z,72.74
2023-03-12T06:21:42.833Z,73.09
2023-03-12T06:24:10.003Z,72.74
2023-03-12T06:26:36.721Z,72.43
2023-03-12T06:29:03.546Z,72.78
2023-03-12T06:31:30.621Z,72.92
2023-03-12T06:33:57.461Z,72.41
2023-03-12T06:36:24.570Z,72.42
2023-03-12T06:38:51.263Z,72.69
2023-03-12T06:41:19.798Z,72.10
2023-03-12T06:43:46.436Z,72.32
2023-03-12T06:46:17.030Z,72.29
2023-03-12T06:48:46.294Z,72.02
2023-03-12T06:51:14.760Z,71.80
2023-03-12T06:53:42.610Z,71.68
2023-03-12T06:56:10.238Z,72.06
2023-03-12T06:58:37.010Z,71.85
2023-03-12T07:01:04.129Z,71.72
2023-03-12T07:47:49.558Z,73.91
2023-03-12T07:50:17.732Z,73.35
2023-03-12T07:52:45.560Z,73.30
2023-03-12T07:55:12.928Z,73.08
2023-03-12T07:57:39.758Z,73.60
2023-03-12T08:00:08.004Z,73.75
2023-03-12T08:02:35.022Z,73.75
2023-03-12T08:05:02.109Z,73.64
2023-03-12T08:07:32.348Z,73.96
2023-03-12T08:10:00.320Z,73.88
2023-03-12T08:12:28.046Z,74.56
2023-03-12T08:14:54.921Z,74.63
2023-03-12T08:17:21.779Z,74.64
2023-03-12T08:19:48.578Z,74.60
2023-03-12T08:22:15.250Z,74.47
2023-03-12T08:24:41.981Z,74.71
2023-03-12T08:27:08.946Z,74.67
2023-03-12T08:29:35.533Z,74.83
2023-03-12T08:32:05.242Z,75.08
2023-03-12T08:34:33.888Z,75.01
2023-03-12T08:37:01.177Z,74.76
2023-03-12T08:39:27.868Z,75.40
2023-03-12T08:41:55.445Z,75.51
2023-03-12T08:44:23.349Z,75.12
2023-03-12T08:46:51.271Z,75.36
2023-03-12T08:49:19.014Z,75.42
2023-03-12T08:51:45.625Z,76.07
2023-03-12T08:54:12.500Z,75.82
2023-03-12T08:56:42.422Z,75.71
2023-03-12T08:59:13.519Z,75.66
2023-03-12T09:01:43.446Z,75.79
2023-03-12T09:04:10.564Z,76.26
2023-03-12T09:06:38.629Z,75.97
2023-03-12T09:09:05.880Z,75.74
2023-03-12T09:11:33.966Z,76.28
2023-03-12T09:14:42.424Z,76.00
2023-03-12T09:16:49.277Z,76.17
2023-03-12T09:19:16.725Z,76.12
2023-03-12T09:21:43.299Z,76.48
2023-03-12T09:24:10.279Z,76.47
2023-03-12T09:26:37.016Z,77.00
2023-03-12T09:29:03.620Z,76.83
2023-03-12T09:31:30.382Z,77.18
2023-03-12T09:33:57.369Z,77.40
2023-03-12T09:36:24.083Z,77.48
2023-03-12T09:38:50.809Z,77.39
2023-03-12T09:41:23.603Z,77.77
2023-03-12T09:43:59.692Z,77.73
2023-03-12T09:46:35.872Z,77.99
2023-03-12T09:49:06.509Z,77.89
2023-03-12T09:51:38.877Z,77.80
2023-03-12T09:54:13.881Z,78.11
2023-03-12T09:56:40.839Z,78.21
2023-03-12T09:59:12.571Z,78.20
2023-03-12T10:01:48.276Z,78.53
2023-03-12T10:04:27.757Z,78.33
2023-03-12T10:07:05.729Z,78.52
2023-03-12T10:09:56.610Z,79.17
2023-03-12T10:12:47.681Z,78.88
2023-03-12T10:15:25.414Z,79.00
2023-03-12T10:18:19.160Z,79.15
2023-03-12T10:21:02.201Z,79.08
2023-03-12T10:24:18.595Z,79.04
2023-03-12T10:26:50.024Z,79.40
2023-03-12T10:29:19.213Z,79.37
2023-03-12T10:31:52.014Z,79.85
2023-03-12T10:34:52.884Z,79.67
2023-03-12T10:37:48.742Z,80.15
2023-03-12T10:40:22.384Z,79.47
2023-03-12T10:42:49.635Z,79.64
2023-03-12T10:45:30.896Z,79.30
2023-03-12T10:48:07.224Z,79.79
2023-03-12T10:50:37.117Z,79.67
2023-03-12T10:53:22.643Z,79.88
2023-03-12T10:56:04.234Z,79.75
2023-03-12T10:58:42.768Z,79.68
2023-03-12T11:01:30.524Z,80.37
2023-03-12T11:04:25.865Z,80.34
2023-03-12T11:07:27.797Z,80.25
2023-03-12T11:10:19.164Z,80.30
2023-03-12T11:13:32.612Z,80.22
2023-03-12T11:16:24.953Z,79.81
2023-03-12T11:19:03.932Z,80.66
2023-03-12T11:21:33.205Z,79.80
2023-03-12T11:23:59.750Z,80.05
2023-03-12T11:26:33.944Z,80.29
2023-03-12T11:29:12.758Z,80.18
2023-03-12T11:31:47.131Z,79.86
2023-03-12T11:34:28.907Z,80.92
2023-03-12T11:37:11.126Z,80.67
2023-03-12T11:39:57.109Z,80.70
2023-03-12T11:42:32.999Z,80.79
2023-03-12T11:45:30.777Z,80.49
2023-03-12T11:48:27.673Z,80.91
2023-03-12T11:51:03.813Z,80.54
2023-03-12T11:53:37.876Z,80.62
2023-03-12T11:56:07.494Z,80.40
2023-03-12T11:58:48.858Z,80.65
2023-03-12T12:01:32.820Z,80.43
2023-03-12T12:04:36.321Z,80.84
2023-03-12T12:07:22.320Z,80.55
2023-03-12T12:09:55.782Z,80.23
2023-03-12T12:12:40.873Z,80.85
2023-03-12T12:15:14.484Z,80.96
2023-03-12T12:17:53.263Z,80.79
2023-03-12T12:20:25.616Z,80.42
2023-03-12T12:22:59.744Z,80.68
2023-03-12T12:26:07.485Z,80.67
2023-03-12T12:28:43.716Z,80.92
2023-03-12T12:31:19.679Z,81.12
2023-03-12T12:34:18.755Z,80.97
2023-03-12T12:36:53.076Z,81.15
2023-03-12T12:39:41.333Z,80.91
2023-03-12T12:42:16.417Z,80.81
2023-03-12T12:44:52.633Z,81.16
2023-03-12T12:47:29.629Z,81.19
2023-03-12T12:49:58.204Z,80.87
2023-03-12T12:52:27.037Z,81.18
2023-03-12T12:55:07.970Z,81.06
2023-03-12T12:58:03.047Z,81.26
2023-03-12T13:00:29.687Z,80.94
2023-03-12T13:02:57.165Z,81.16
2023-03-12T13:05:46.645Z,81.13
2023-03-12T13:08:44.319Z,81.44
2023-03-12T13:11:20.481Z,81.00
2023-03-12T13:14:12.330Z,81.40
2023-03-12T13:16:43.018Z,81.09
2023-03-12T13:19:15.927Z,81.30
2023-03-12T13:22:06.129Z,81.29
2023-03-12T13:25:03.644Z,81.84
2023-03-12T13:27:36.811Z,81.26
2023-03-12T13:30:35.155Z,81.60
2023-03-12T13:33:02.002Z,81.53
2023-03-12T13:35:39.148Z,81.46
2023-03-12T13:38:18.693Z,81.38
2023-03-12T13:40:51.412Z,81.70
2023-03-12T13:43:37.683Z,81.63
2023-03-12T13:46:21.887Z,81.69
2023-03-12T13:48:49.608Z,81.83
2023-03-12T13:51:21.989Z,81.51
2023-03-12T13:53:53.773Z,81.60
2023-03-12T13:56:27.739Z,81.84
2023-03-12T13:58:59.403Z,81.95
2023-03-12T14:01:40.674Z,81.94
2023-03-12T14:04:20.767Z,82.33
2023-03-12T14:07:00.546Z,81.76
2023-03-12T14:09:40.603Z,82.37
2023-03-12T14:12:38.375Z,82.08
2023-03-12T14:15:23.769Z,82.14
2023-03-12T14:17:58.853Z,82.53
2023-03-12T14:20:27.222Z,82.08
2023-03-12T14:23:04.447Z,82.73
2023-03-12T14:25:42.232Z,82.31
2023-03-12T14:28:23.734Z,82.40
2023-03-12T14:31:05.152Z,82.80
2023-03-12T14:33:41.513Z,82.25
2023-03-12T14:36:17.059Z,82.26
2023-03-12T14:38:47.255Z,82.55
2023-03-12T14:41:32.534Z,82.44
2023-03-12T14:44:21.910Z,82.34
2023-03-12T14:47:03.516Z,82.65
2023-03-12T14:49:31.950Z,82.60
2023-03-12T14:51:58.785Z,82.95
2023-03-12T14:54:28.567Z,82.46
2023-03-12T14:56:55.464Z,82.88
2023-03-12T14:59:26.792Z,82.80
2023-03-12T15:02:01.778Z,83.21
2023-03-12T15:04:30.108Z,83.14
2023-03-12T15:06:59.511Z,83.16
2023-03-12T15:09:28.522Z,82.82
2023-03-12T15:11:58.850Z,83.29
2023-03-12T15:14:28.468Z,82.95
2023-03-12T15:16:58.819Z,82.74
2023-03-12T15:19:32.707Z,82.81
2023-03-12T15:22:00.595Z,83.12
2023-03-12T15:24:39.323Z,83.35
2023-03-12T15:27:38.646Z,83.03
2023-03-12T15:30:23.984Z,83.23
2023-03-12T15:33:10.659Z,83.27
2023-03-12T15:35:41.490Z,83.29
2023-03-12T15:38:16.265Z,83.03
2023-03-12T15:40:49.518Z,82.92
2023-03-12T15:43:20.360Z,83.17
2023-03-12T15:45:48.446Z,83.04
2023-03-12T15:48:26.728Z,82.82
2023-03-12T15:50:53.553Z,83.22
2023-03-12T15:53:20.205Z,83.27
2023-03-12T15:56:09.595Z,82.63
2023-03-12T15:58:41.659Z,83.09
2023-03-12T16:01:16.723Z,83.09
2023-03-12T16:03:45.614Z,82.64
2023-03-12T16:06:17.811Z,83.07
2023-03-12T16:08:56.825Z,82.88
2023-03-12T16:11:27.046Z,82.84
2023-03-12T16:14:03.769Z,82.44
2023-03-12T16:16:30.690Z,82.88
2023-03-12T16:18:57.743Z,82.71
2023-03-12T16:21:24.620Z,82.40
2023-03-12T16:23:51.588Z,82.64
2023-03-12T16:26:18.401Z,82.72
2023-03-12T16:28:45.708Z,82.34
2023-03-12T16:31:14.124Z,82.76
2023-03-12T16:33:41.494Z,82.67
2023-03-12T16:36:16.789Z,82.33
2023-03-12T16:38:44.378Z,82.54
2023-03-12T16:41:16.913Z,82.43
2023-03-12T16:43:50.001Z,82.01
2023-03-12T16:46:20.824Z,82.34
2023-03-12T16:48:53.772Z,82.32
2023-03-12T16:51:20.723Z,81.84
2023-03-12T16:53:53.346Z,82.34
2023-03-12T16:56:28.911Z,82.55
2023-03-12T16:58:57.743Z,81.99
2023-03-12T17:01:26.857Z,81.84
2023-03-12T17:03:54.286Z,81.86
2023-03-12T17:06:27.877Z,82.28
2023-03-12T17:08:55.212Z,81.76
2023-03-12T17:11:26.959Z,82.08
2023-03-12T17:13:57.630Z,82.09
2023-03-12T17:16:24.688Z,82.25
2023-03-12T17:18:51.334Z,81.78
2023-03-12T17:21:20.221Z,81.82
2023-03-12T17:23:50.002Z,81.85
2023-03-12T17:26:18.150Z,81.90
2023-03-12T17:28:45.461Z,81.48
2023-03-12T17:31:12.396Z,81.75
2023-03-12T17:33:39.311Z,81.83
2023-03-12T17:36:09.271Z,81.58
2023-03-12T17:38:36.580Z,81.73
2023-03-12T17:41:09.433Z,81.86
2023-03-12T17:43:41.174Z,82.11
2023-03-12T17:46:09.617Z,81.56
2023-03-12T17:48:36.348Z,82.13
2023-03-12T17:51:10.255Z,81.72
2023-03-12T17:53:39.499Z,82.09
2023-03-12T17:56:06.965Z,81.88
2023-03-12T17:58:33.924Z,82.08
2023-03-12T18:01:00.847Z,81.79
2023-03-12T18:03:27.721Z,81.72
2023-03-12T18:05:54.384Z,81.81
2023-03-12T18:08:21.242Z,81.88
2023-03-12T18:10:48.603Z,81.88
2023-03-12T18:13:15.277Z,82.00
2023-03-12T18:15:41.992Z,82.31
2023-03-12T18:18:08.756Z,82.18
2023-03-12T18:20:39.729Z,81.81
2023-03-12T18:23:07.001Z,82.11
2023-03-12T18:25:33.731Z,82.07
2023-03-12T18:28:00.718Z,82.10
2023-03-12T18:30:28.334Z,81.91
2023-03-12T18:32:55.220Z,81.72
2023-03-12T18:35:22.965Z,82.31
2023-03-12T18:37:51.877Z,81.71
2023-03-12T18:40:18.710Z,81.72
2023-03-12T18:42:45.422Z,82.23
2023-03-12T18:45:12.425Z,81.92
2023-03-12T18:47:39.665Z,81.81
2023-03-12T18:50:07.442Z,81.60
2023-03-12T18:52:34.237Z,81.61
2023-03-12T18:55:01.157Z,81.58
2023-03-12T18:57:27.899Z,81.67
2023-03-12T18:59:54.526Z,81.67
2023-03-12T19:02:21.171Z,81.83
2023-03-12T19:04:48.127Z,81.52
2023-03-12T19:07:14.719Z,81.58
2023-03-12T19:09:42.124Z,82.02
2023-03-12T19:12:08.841Z,81.79
2023-03-12T19:14:35.662Z,82.13
2023-03-12T19:17:02.652Z,81.72
2023-03-12T19:19:29.320Z,81.77
2023-03-12T19:21:57.450Z,81.92
2023-03-12T19:24:24.256Z,81.60
2023-03-12T19:26:50.951Z,81.61
2023-03-12T19:29:17.598Z,81.96
2023-03-12T19:31:44.494Z,81.52
2023-03-12T19:34:11.273Z,81.72
2023-03-12T19:36:37.927Z,81.44
2023-03-12T19:39:11.970Z,81.73
2023-03-12T19:41:45.483Z,81.70
2023-03-12T19:44:12.606Z,81.76
2023-03-12T19:46:41.792Z,81.69
2023-03-12T19:49:08.595Z,81.62
2023-03-12T19:51:35.539Z,81.73
2023-03-12T19:54:02.175Z,81.40
2023-03-12T19:56:29.196Z,81.69
2023-03-12T19:58:55.979Z,81.52
2023-03-12T20:01:25.438Z,81.34
2023-03-12T20:03:52.269Z,81.57
2023-03-12T20:06:19.085Z,81.78
2023-03-12T20:08:45.696Z,81.62
2023-03-12T20:11:12.523Z,81.71
2023-03-12T20:13:39.369Z,81.91
2023-03-12T20:16:07.745Z,81.89
2023-03-12T20:18:34.538Z,81.56
2023-03-12T20:21:01.330Z,82.07
2023-03-12T20:23:27.904Z,81.86
2023-03-12T20:25:54.616Z,81.61
2023-03-12T20:28:21.391Z,81.80
2023-03-12T20:30:48.640Z,81.73
2023-03-12T20:33:15.726Z,81.99
2023-03-12T20:35:42.632Z,81.86
2023-03-12T20:38:09.611Z,81.71
2023-03-12T20:40:36.724Z,81.65
2023-03-12T20:43:05.051Z,81.90
2023-03-12T20:45:33.414Z,82.08
2023-03-12T20:48:00.452Z,81.85
2023-03-12T20:50:29.126Z,82.15
2023-03-12T20:52:55.849Z,81.87
2023-03-12T20:55:22.578Z,81.95
2023-03-12T20:57:49.344Z,81.96
2023-03-12T21:00:16.352Z,81.85
2023-03-12T21:02:43.344Z,82.27
2023-03-12T21:05:11.460Z,82.11
2023-03-12T21:07:38.205Z,82.27
2023-03-12T21:10:05.909Z,81.89
2023-03-12T21:12:32.679Z,82.13
2023-03-12T21:15:06.181Z,82.15
2023-03-12T21:17:35.035Z,82.02
2023-03-12T21:20:09.696Z,82.11
2023-03-12T21:22:37.517Z,82.14
2023-03-12T21:25:04.863Z,81.79
2023-03-12T21:27:41.145Z,82.00
2023-03-12T21:30:12.071Z,82.27
2023-03-12T21:32:38.848Z,81.86
2023-03-12T21:35:05.914Z,81.97
2023-03-12T21:37:32.720Z,81.96
2023-03-12T21:40:01.382Z,81.99
2023-03-12T21:42:28.918Z,82.33
2023-03-12T21:44:55.650Z,82.30
2023-03-12T21:47:22.914Z,82.29
2023-03-12T21:49:49.557Z,82.23
2023-03-12T21:52:16.322Z,82.26
2023-03-12T21:54:43.427Z,81.97
2023-03-12T21:57:10.082Z,82.29
2023-03-12T21:59:36.898Z,82.35
2023-03-12T22:02:03.678Z,82.25
2023-03-12T22:04:30.383Z,82.34
2023-03-12T22:06:57.135Z,82.37
2023-03-12T22:09:23.921Z,82.21
2023-03-12T22:11:50.670Z,82.56
2023-03-12T22:14:17.559Z,82.13
2023-03-12T22:16:44.238Z,82.15
2023-03-12T22:19:11.013Z,82.42
2023-03-12T22:21:38.047Z,82.12
2023-03-12T22:24:05.121Z,82.31
2023-03-12T22:26:31.726Z,82.51
2023-03-12T22:28:59.503Z,82.14
2023-03-12T22:31:28.227Z,82.39
2023-03-12T22:33:55.623Z,82.33
2023-03-12T22:36:23.651Z,82.48
2023-03-12T22:38:50.867Z,82.42
2023-03-12T22:41:28.666Z,82.20
2023-03-12T22:43:57.412Z,82.39
2023-03-12T22:46:25.714Z,82.16
2023-03-12T22:48:55.276Z,81.77
2023-03-12T22:51:22.985Z,82.03
2023-03-12T22:53:49.667Z,81.82
2023-03-12T22:56:16.808Z,81.74
2023-03-12T22:58:43.720Z,82.09
2023-03-12T23:01:12.888Z,82.14
2023-03-12T23:03:41.825Z,82.13
2023-03-12T23:06:19.668Z,82.03
2023-03-12T23:08:47.851Z,81.79
2023-03-12T23:11:15.958Z,81.96
2023-03-12T23:13:44.888Z,81.66
2023-03-12T23:16:18.187Z,81.74
2023-03-12T23:18:45.708Z,81.94
2023-03-12T23:21:15.516Z,82.11
2023-03-12T23:23:43.628Z,81.80
2023-03-12T23:26:16.461Z,81.92
2023-03-12T23:28:43.852Z,81.71
2023-03-12T23:31:11.172Z,81.97
2023-03-12T23:33:37.859Z,82.10
2023-03-12T23:36:04.887Z,81.70
2023-03-12T23:38:32.369Z,81.51
2023-03-12T23:41:12.147Z,82.02
2023-03-12T23:43:39.091Z,81.97
2023-03-12T23:46:07.419Z,82.28
2023-03-12T23:48:35.866Z,81.64
2023-03-12T23:51:16.067Z,82.08
2023-03-12T23:53:45.556Z,81.55
2023-03-12T23:56:15.079Z,81.85
2023-03-12T23:58:43.102Z,82.02
